Time;durP1;ratioP1;P1;durP2;ratioP2;P2;SDS_P1;SDS_P2;PMS_P1;PMS_P2;Temp;Humidity;BMP_temperature;BMP_pressure;BME280_temperature;BME280_humidity;BME280_pressure;Samples;Min_cycle;Max_cycle;Signal;HPM_P1;HPM_P2
2022/09/02 05:00:41;;;;;;;4.00;3.70;;;15.60;97.20;;;;;;1727555;28;20213;-74
2022/09/02 05:01:34;;;;;;;3.72;3.42;;;15.60;97.20;;;;;;1727973;28;20343;-73
2022/09/02 05:02:25;;;;;;;4.28;3.97;;;15.60;97.20;;;;;;1731358;28;20192;-74
2022/09/02 05:03:18;;;;;;;4.55;4.15;;;15.60;97.20;;;;;;1733802;28;20215;-73
2022/09/02 05:04:10;;;;;;;4.72;4.22;;;15.60;97.20;;;;;;1734158;28;20214;-73
2022/09/02 05:05:01;;;;;;;4.25;3.95;;;15.60;97.20;;;;;;1733943;28;20246;-73
2022/09/02 05:06:04;;;;;;;3.97;3.57;;;15.60;97.20;;;;;;1734423;28;20249;-73
2022/09/02 05:06:56;;;;;;;4.00;3.70;;;15.60;97.20;;;;;;1730657;28;20238;-74
2022/09/02 05:07:48;;;;;;;4.93;4.13;;;15.60;97.20;;;;;;1731380;28;20242;-74
2022/09/02 05:08:41;;;;;;;5.22;4.10;;;15.60;97.20;;;;;;1734260;28;20261;-74
2022/09/02 05:09:32;;;;;;;4.93;4.00;;;15.60;97.20;;;;;;1733736;28;20203;-74
2022/09/02 05:10:23;;;;;;;3.97;3.63;;;15.60;97.20;;;;;;1734871;28;20286;-74
2022/09/02 05:11:17;;;;;;;4.03;3.72;;;15.60;97.20;;;;;;1734698;28;20468;-74
2022/09/02 05:12:09;;;;;;;4.30;3.90;;;15.60;97.20;;;;;;1734901;28;20238;-74
2022/09/02 05:12:59;;;;;;;4.60;4.20;;;15.60;97.20;;;;;;1734594;28;20234;-74
2022/09/02 05:13:51;;;;;;;3.50;3.27;;;15.60;97.20;;;;;;1734883;28;20238;-73
2022/09/02 05:14:42;;;;;;;4.40;4.00;;;15.60;97.20;;;;;;1734645;28;20204;-73
2022/09/02 05:15:42;;;;;;;3.80;3.50;;;15.60;97.20;;;;;;1734863;28;20610;-73
2022/09/02 05:16:35;;;;;;;4.35;3.58;;;15.60;97.20;;;;;;1734798;28;20207;-73
2022/09/02 05:17:28;;;;;;;4.15;3.60;;;15.60;97.20;;;;;;1734162;28;20242;-73
2022/09/02 05:18:19;;;;;;;4.72;4.32;;;15.60;97.20;;;;;;1734735;28;20199;-73
2022/09/02 05:19:12;;;;;;;5.43;4.23;;;15.60;97.20;;;;;;1734476;28;20238;-73
2022/09/02 05:20:05;;;;;;;4.00;3.60;;;15.60;97.20;;;;;;1733580;28;20362;-73
2022/09/02 05:20:56;;;;;;;4.93;4.40;;;15.60;97.20;;;;;;1734389;28;20270;-73
2022/09/02 05:21:48;;;;;;;5.70;4.32;;;15.60;97.20;;;;;;1734658;28;20196;-73
2022/09/02 05:22:40;;;;;;;4.90;4.50;;;15.60;97.20;;;;;;1734728;28;20219;-73
2022/09/02 05:23:31;;;;;;;3.90;3.70;;;15.70;97.20;;;;;;1734707;28;20611;-73
2022/09/02 05:24:23;;;;;;;4.28;3.47;;;15.60;97.20;;;;;;1734714;28;20575;-73
2022/09/02 05:25:14;;;;;;;4.30;4.00;;;15.70;97.20;;;;;;1734808;28;20667;-74
2022/09/02 05:26:07;;;;;;;4.93;3.35;;;15.60;97.20;;;;;;1734767;28;20206;-73
2022/09/02 05:26:58;;;;;;;4.65;3.75;;;15.70;97.20;;;;;;1734398;28;20228;-76
2022/09/02 05:27:50;;;;;;;4.20;3.90;;;15.70;97.20;;;;;;1734077;28;20208;-75
2022/09/02 05:28:42;;;;;;;6.30;4.53;;;15.70;97.20;;;;;;1734568;28;20211;-75
2022/09/02 05:29:33;;;;;;;4.05;3.75;;;15.70;97.20;;;;;;1734676;28;20215;-75
2022/09/02 05:30:24;;;;;;;4.57;4.10;;;15.70;97.20;;;;;;1734340;28;20570;-75
2022/09/02 05:31:20;;;;;;;4.43;3.93;;;15.70;97.20;;;;;;1734645;28;20295;-75
2022/09/02 05:32:11;;;;;;;4.50;4.10;;;15.70;97.20;;;;;;1734769;28;20208;-75
2022/09/02 05:33:03;;;;;;;5.05;4.65;;;15.70;97.20;;;;;;1734704;28;20202;-76
2022/09/02 05:33:54;;;;;;;4.80;4.50;;;15.80;97.20;;;;;;1734695;28;20210;-76
2022/09/02 05:34:46;;;;;;;6.23;4.53;;;15.80;97.20;;;;;;1734761;28;20294;-73
2022/09/02 05:35:39;;;;;;;4.63;4.20;;;15.80;97.20;;;;;;1734535;28;20204;-73
2022/09/02 05:36:32;;;;;;;8.40;4.50;;;15.80;97.20;;;;;;1734649;28;20203;-73
2022/09/02 05:37:23;;;;;;;5.05;4.65;;;15.80;97.20;;;;;;1733991;28;20204;-73
2022/09/02 05:38:16;;;;;;;4.85;4.45;;;15.90;97.20;;;;;;1734737;28;20223;-73
2022/09/02 05:39:08;;;;;;;4.75;4.45;;;15.90;97.20;;;;;;1734728;28;20302;-73
2022/09/02 05:39:59;;;;;;;5.65;5.00;;;15.90;97.20;;;;;;1734338;28;20195;-73
2022/09/02 05:40:50;;;;;;;5.28;4.88;;;15.90;97.20;;;;;;1734115;28;20238;-73
2022/09/02 05:41:42;;;;;;;5.87;5.37;;;15.90;97.20;;;;;;1734624;28;20250;-73
2022/09/02 05:42:33;;;;;;;4.72;4.35;;;16.00;97.20;;;;;;1734350;28;20200;-73
2022/09/02 05:43:24;;;;;;;4.87;4.40;;;16.00;97.20;;;;;;1734381;28;20187;-73
2022/09/02 05:44:15;;;;;;;4.75;4.35;;;16.00;97.20;;;;;;1733797;28;20815;-73
2022/09/02 05:45:08;;;;;;;5.50;5.10;;;16.00;97.20;;;;;;1734692;28;20283;-73
2022/09/02 05:46:02;;;;;;;5.78;5.25;;;16.10;97.20;;;;;;1734577;28;20816;-73
2022/09/02 05:46:55;;;;;;;5.00;4.60;;;16.10;97.20;;;;;;1734438;28;20224;-73
2022/09/02 05:47:45;;;;;;;5.15;4.20;;;16.10;97.20;;;;;;1734070;28;20247;-73
2022/09/02 05:49:47;;;;;;;4.57;4.18;;;16.10;97.20;;;;;;1733865;28;20271;-73
2022/09/02 05:50:38;;;;;;;4.85;4.47;;;16.20;97.20;;;;;;1730198;28;20235;-73
2022/09/02 05:51:31;;;;;;;5.53;5.13;;;16.20;97.20;;;;;;1731827;28;20303;-73
2022/09/02 05:52:22;;;;;;;5.35;4.85;;;16.20;97.20;;;;;;1727606;28;20689;-73
2022/09/02 05:53:14;;;;;;;4.73;4.33;;;16.20;97.20;;;;;;1733914;28;20584;-74
2022/09/02 05:54:04;;;;;;;5.00;4.60;;;16.30;97.20;;;;;;1734351;28;20675;-73
2022/09/02 05:54:57;;;;;;;5.37;4.80;;;16.30;97.20;;;;;;1728904;28;20543;-73
2022/09/02 05:55:49;;;;;;;5.38;4.88;;;16.30;97.20;;;;;;1732099;28;20601;-74
2022/09/02 05:56:42;;;;;;;5.68;5.22;;;16.40;97.20;;;;;;1730599;28;20677;-73
2022/09/02 05:57:33;;;;;;;4.80;4.40;;;16.40;97.20;;;;;;1726448;28;20208;-73
2022/09/02 05:58:25;;;;;;;5.20;4.67;;;16.40;97.20;;;;;;1727171;28;20195;-73
2022/09/02 05:59:17;;;;;;;5.18;4.78;;;16.40;97.20;;;;;;1727737;28;20200;-74
2022/09/02 06:00:10;;;;;;;5.30;4.80;;;16.50;97.20;;;;;;1727764;28;20623;-74
2022/09/02 06:01:08;;;;;;;4.63;4.28;;;16.50;97.20;;;;;;1727773;28;20580;-73
2022/09/02 06:02:01;;;;;;;4.50;4.10;;;16.50;97.20;;;;;;1727707;28;20200;-73
2022/09/02 06:02:51;;;;;;;5.40;4.90;;;16.50;97.20;;;;;;1727761;28;20287;-74
2022/09/02 06:03:43;;;;;;;4.67;4.20;;;16.50;97.20;;;;;;1727094;28;20202;-73
2022/09/02 06:04:37;;;;;;;5.65;4.60;;;16.50;97.20;;;;;;1729414;28;20208;-73
2022/09/02 06:05:29;;;;;;;7.47;4.40;;;16.50;97.20;;;;;;1733960;28;20199;-73
2022/09/02 06:06:21;;;;;;;4.55;4.15;;;16.50;97.20;;;;;;1733916;28;20859;-73
2022/09/02 06:07:14;;;;;;;4.28;3.88;;;16.60;97.20;;;;;;1733433;28;20228;-73
2022/09/02 06:08:05;;;;;;;4.53;4.13;;;16.60;97.20;;;;;;1734561;28;20593;-72
2022/09/02 06:08:57;;;;;;;5.23;4.73;;;16.60;97.20;;;;;;1734397;28;20626;-73
2022/09/02 06:09:48;;;;;;;4.93;3.90;;;16.60;97.20;;;;;;1734689;28;20215;-74
2022/09/02 06:10:42;;;;;;;3.95;3.70;;;16.60;97.20;;;;;;1734093;28;20251;-73
2022/09/02 06:11:33;;;;;;;4.10;3.70;;;16.60;97.20;;;;;;1734002;28;20204;-73
2022/09/02 06:12:25;;;;;;;5.95;3.90;;;16.60;97.20;;;;;;1734668;28;20573;-73
2022/09/02 06:13:21;;;;;;;4.15;3.85;;;16.60;97.20;;;;;;1734627;28;20318;-73
2022/09/02 06:14:14;;;;;;;4.22;3.92;;;16.60;97.20;;;;;;1734661;28;20640;-73
2022/09/02 06:15:05;;;;;;;4.15;3.75;;;16.60;97.20;;;;;;1734606;28;20200;-74
2022/09/02 06:15:57;;;;;;;4.13;3.72;;;16.60;97.20;;;;;;1734619;28;20192;-74
2022/09/02 06:16:49;;;;;;;4.03;3.72;;;16.60;97.20;;;;;;1734606;28;20204;-73
2022/09/02 06:17:42;;;;;;;3.70;3.40;;;16.70;97.20;;;;;;1734369;28;20226;-73
2022/09/02 06:18:33;;;;;;;4.28;3.40;;;16.70;97.20;;;;;;1734477;28;20724;-73
2022/09/02 06:19:27;;;;;;;3.55;3.25;;;16.70;97.20;;;;;;1734613;28;20257;-73
2022/09/02 06:20:18;;;;;;;4.20;3.80;;;16.70;97.20;;;;;;1734508;28;20623;-73
2022/09/02 06:21:10;;;;;;;3.80;3.50;;;16.70;97.20;;;;;;1734686;28;20230;-73
2022/09/02 06:22:02;;;;;;;3.53;3.17;;;16.70;97.20;;;;;;1734434;28;20272;-73
2022/09/02 06:22:54;;;;;;;3.75;3.33;;;16.70;97.20;;;;;;1734522;28;20195;-73
2022/09/02 06:23:46;;;;;;;3.63;3.35;;;16.80;97.20;;;;;;1733978;28;20223;-73
2022/09/02 06:24:37;;;;;;;3.42;3.13;;;16.80;97.20;;;;;;1733838;28;20242;-73
2022/09/02 06:25:28;;;;;;;5.63;3.30;;;16.80;97.20;;;;;;1733463;28;20210;-73
2022/09/02 06:26:20;;;;;;;3.53;3.23;;;16.80;97.20;;;;;;1733510;28;20287;-73
2022/09/02 06:27:11;;;;;;;5.78;4.10;;;16.80;97.20;;;;;;1733463;28;20254;-73
2022/09/02 06:28:03;;;;;;;3.60;3.30;;;16.80;97.20;;;;;;1734188;28;20196;-73
2022/09/02 06:28:54;;;;;;;3.90;3.60;;;16.80;97.20;;;;;;1734456;28;20584;-73
2022/09/02 06:29:45;;;;;;;4.00;3.47;;;16.80;97.20;;;;;;1734532;28;20635;-73
2022/09/02 06:30:38;;;;;;;6.25;3.38;;;16.90;97.20;;;;;;1733792;28;20709;-73
2022/09/02 06:31:30;;;;;;;3.50;3.30;;;16.90;97.20;;;;;;1733987;28;20215;-73
2022/09/02 06:32:21;;;;;;;3.30;3.10;;;16.90;97.20;;;;;;1734483;28;20686;-73
2022/09/02 06:33:14;;;;;;;3.53;3.23;;;16.90;97.20;;;;;;1734463;28;20555;-73
2022/09/02 06:34:05;;;;;;;4.65;3.20;;;17.00;97.20;;;;;;1734589;28;20199;-73
2022/09/02 06:34:57;;;;;;;4.47;3.70;;;17.00;97.20;;;;;;1734771;28;20200;-73
2022/09/02 06:35:48;;;;;;;3.58;3.28;;;17.00;97.20;;;;;;1734784;28;20200;-73
2022/09/02 06:36:41;;;;;;;3.95;3.65;;;17.00;97.20;;;;;;1734650;28;20200;-74
2022/09/02 06:37:32;;;;;;;3.78;3.47;;;17.00;97.20;;;;;;1734535;28;20200;-75
2022/09/02 06:38:24;;;;;;;3.72;3.42;;;17.10;97.20;;;;;;1734491;28;20303;-75
2022/09/02 06:39:16;;;;;;;4.20;3.70;;;17.10;97.20;;;;;;1734746;28;20204;-74
2022/09/02 06:40:09;;;;;;;5.75;3.65;;;17.10;97.20;;;;;;1734941;28;20203;-75
2022/09/02 06:41:00;;;;;;;5.97;3.60;;;17.10;97.20;;;;;;1734769;28;20200;-75
2022/09/02 06:41:52;;;;;;;3.77;3.30;;;17.10;97.20;;;;;;1734897;28;20219;-75
2022/09/02 06:42:43;;;;;;;3.88;3.53;;;17.20;97.20;;;;;;1734690;28;20204;-75
2022/09/02 06:43:34;;;;;;;3.60;3.30;;;17.20;97.20;;;;;;1734595;28;20235;-75
2022/09/02 06:44:25;;;;;;;4.53;4.13;;;17.20;97.20;;;;;;1734516;28;20199;-73
2022/09/02 06:45:16;;;;;;;3.75;3.20;;;17.20;97.20;;;;;;1734130;28;20208;-73
2022/09/02 06:46:14;;;;;;;4.60;3.40;;;17.30;97.20;;;;;;1734456;28;20200;-73
2022/09/02 06:47:05;;;;;;;6.72;3.55;;;17.30;97.20;;;;;;1734334;28;20450;-72
2022/09/02 06:47:57;;;;;;;3.80;3.50;;;17.30;97.20;;;;;;1734103;28;20207;-72
2022/09/02 06:48:49;;;;;;;3.90;3.60;;;17.40;97.20;;;;;;1734474;28;20450;-72
2022/09/02 06:49:41;;;;;;;3.85;3.55;;;17.40;97.20;;;;;;1734376;28;20571;-73
2022/09/02 06:50:31;;;;;;;4.28;3.67;;;17.40;97.20;;;;;;1734285;28;20226;-72
2022/09/02 06:51:25;;;;;;;4.37;3.63;;;17.40;97.20;;;;;;1734397;28;20231;-73
2022/09/02 06:52:16;;;;;;;4.65;4.20;;;17.50;97.20;;;;;;1734332;28;20204;-73
2022/09/02 06:53:09;;;;;;;5.93;3.53;;;17.50;97.20;;;;;;1734406;28;20688;-72
2022/09/02 06:54:02;;;;;;;4.13;3.67;;;17.50;97.20;;;;;;1734423;28;20659;-72
2022/09/02 06:54:54;;;;;;;3.85;3.28;;;17.60;97.20;;;;;;1734345;28;20207;-73
2022/09/02 06:55:46;;;;;;;3.90;3.55;;;17.60;97.20;;;;;;1734208;28;20662;-73
2022/09/02 06:56:38;;;;;;;6.95;3.80;;;17.60;97.20;;;;;;1734336;28;20614;-73
2022/09/02 06:57:29;;;;;;;6.18;3.90;;;17.60;97.20;;;;;;1733997;28;20245;-72
2022/09/02 06:58:21;;;;;;;4.20;3.80;;;17.70;97.20;;;;;;1734258;28;20195;-73
2022/09/02 06:59:12;;;;;;;4.70;3.33;;;17.70;97.20;;;;;;1734357;28;20199;-74
2022/09/02 07:00:06;;;;;;;5.07;4.57;;;17.70;97.20;;;;;;1734344;28;20199;-71
2022/09/02 07:00:57;;;;;;;4.85;4.30;;;17.70;97.20;;;;;;1733576;28;20855;-73
2022/09/02 07:01:49;;;;;;;4.60;3.90;;;17.80;97.20;;;;;;1734296;28;20635;-72
2022/09/02 07:02:40;;;;;;;4.20;3.90;;;17.80;97.20;;;;;;1733967;28;20199;-73
2022/09/02 07:05:59;;;;;;;5.90;3.72;;;17.90;97.20;;;;;;1734525;28;20675;-72
2022/09/02 07:06:52;;;;;;;4.20;3.88;;;18.00;97.20;;;;;;1734394;28;20235;-73
2022/09/02 07:07:46;;;;;;;5.15;4.45;;;18.00;97.20;;;;;;1734022;28;20694;-73
2022/09/02 07:08:39;;;;;;;6.70;4.13;;;18.10;97.20;;;;;;1734200;28;20211;-72
2022/09/02 07:09:30;;;;;;;5.30;4.38;;;18.10;97.20;;;;;;1734332;28;20295;-73
2022/09/02 07:10:22;;;;;;;4.80;3.83;;;18.10;97.20;;;;;;1734411;28;20207;-73
2022/09/02 07:11:17;;;;;;;4.97;3.95;;;18.10;97.20;;;;;;1734239;28;20212;-72
2022/09/02 07:12:08;;;;;;;6.25;3.70;;;18.20;97.20;;;;;;1734324;28;20207;-72
2022/09/02 07:13:00;;;;;;;5.83;3.50;;;18.20;97.20;;;;;;1734262;28;20199;-72
2022/09/02 07:13:50;;;;;;;9.85;4.78;;;18.20;97.20;;;;;;1734446;28;20212;-72
2022/09/02 07:14:43;;;;;;;4.80;3.73;;;18.30;97.20;;;;;;1734270;28;20286;-72
2022/09/02 07:15:34;;;;;;;3.97;3.60;;;18.30;97.20;;;;;;1734190;28;20207;-73
2022/09/02 07:16:26;;;;;;;4.37;3.97;;;18.30;97.20;;;;;;1734255;28;20231;-71
2022/09/02 07:17:20;;;;;;;4.90;3.67;;;18.40;97.20;;;;;;1733877;28;20439;-72
2022/09/02 07:18:12;;;;;;;7.38;4.20;;;18.40;97.20;;;;;;1734602;28;20196;-72
2022/09/02 07:19:03;;;;;;;4.60;4.15;;;18.40;97.20;;;;;;1734115;28;20208;-72
2022/09/02 07:19:59;;;;;;;5.40;4.00;;;18.50;97.20;;;;;;1734159;28;20199;-72
2022/09/02 07:20:51;;;;;;;4.32;3.60;;;18.50;97.20;;;;;;1733941;28;20227;-72
2022/09/02 07:21:42;;;;;;;10.27;4.07;;;18.60;97.20;;;;;;1734362;28;20208;-73
2022/09/02 07:22:34;;;;;;;10.38;4.35;;;18.60;97.20;;;;;;1734037;28;20563;-73
2022/09/02 07:23:24;;;;;;;5.18;4.40;;;18.60;97.20;;;;;;1734239;28;20203;-72
2022/09/02 07:24:17;;;;;;;4.60;3.90;;;18.70;97.20;;;;;;1734230;28;20196;-72
2022/09/02 07:25:09;;;;;;;8.68;3.83;;;18.70;97.20;;;;;;1734254;28;20211;-72
2022/09/02 07:26:01;;;;;;;8.88;3.55;;;18.70;97.20;;;;;;1730497;28;20192;-71
2022/09/02 07:26:52;;;;;;;9.50;4.40;;;18.80;97.20;;;;;;1733435;28;20203;-72
2022/09/02 07:27:44;;;;;;;10.23;3.80;;;18.80;97.20;;;;;;1728573;28;20242;-72
2022/09/02 07:28:35;;;;;;;8.48;3.75;;;18.80;97.20;;;;;;1732036;28;20458;-72
2022/09/02 07:29:27;;;;;;;7.73;3.90;;;18.90;97.20;;;;;;1733212;28;20207;-72
2022/09/02 07:30:18;;;;;;;11.32;4.10;;;18.90;97.20;;;;;;1729960;28;20216;-72
2022/09/02 07:31:10;;;;;;;5.50;3.70;;;19.00;97.20;;;;;;1732433;28;20655;-72
2022/09/02 07:32:02;;;;;;;5.03;4.05;;;19.00;97.20;;;;;;1733503;28;20697;-73
2022/09/02 07:32:54;;;;;;;3.40;3.08;;;19.00;97.20;;;;;;1728357;28;20703;-73
2022/09/02 07:33:46;;;;;;;3.90;3.50;;;19.10;97.20;;;;;;1730737;28;20213;-73
2022/09/02 07:34:38;;;;;;;5.80;4.35;;;19.10;97.20;;;;;;1734180;28;20273;-72
2022/09/02 07:35:30;;;;;;;5.35;3.65;;;19.10;97.20;;;;;;1727233;28;20208;-73
2022/09/02 07:36:22;;;;;;;4.50;3.70;;;19.10;97.20;;;;;;1727371;28;20664;-72
2022/09/02 07:37:13;;;;;;;3.80;2.80;;;19.20;97.20;;;;;;1726911;28;20197;-72
2022/09/02 07:38:06;;;;;;;7.10;3.60;;;19.20;97.20;;;;;;1726907;28;20639;-72
2022/09/02 07:38:57;;;;;;;6.30;3.70;;;19.20;97.20;;;;;;1727052;28;20852;-72
2022/09/02 07:39:50;;;;;;;5.10;3.13;;;19.20;97.20;;;;;;1727416;28;20200;-72
2022/09/02 07:40:42;;;;;;;5.55;3.90;;;19.30;97.20;;;;;;1727196;28;20595;-72
2022/09/02 07:41:34;;;;;;;6.32;3.85;;;19.30;97.20;;;;;;1731967;28;20192;-74
2022/09/02 07:42:25;;;;;;;3.00;2.80;;;19.30;97.20;;;;;;1734173;28;20207;-72
2022/09/02 07:43:17;;;;;;;5.80;4.03;;;19.40;97.20;;;;;;1734082;28;20290;-72
2022/09/02 07:44:08;;;;;;;4.10;3.00;;;19.40;97.20;;;;;;1734198;28;20707;-72
2022/09/02 07:45:00;;;;;;;4.00;3.03;;;19.40;97.20;;;;;;1734197;28;20196;-72
2022/09/02 07:45:54;;;;;;;4.40;3.80;;;19.40;97.20;;;;;;1734091;28;20200;-72
2022/09/02 07:46:46;;;;;;;8.15;3.80;;;19.50;97.20;;;;;;1734006;28;20222;-72
2022/09/02 07:47:37;;;;;;;3.38;3.08;;;19.50;97.20;;;;;;1733644;28;20219;-74
2022/09/02 07:48:29;;;;;;;4.87;3.30;;;19.50;97.20;;;;;;1734160;28;20286;-74
2022/09/02 07:49:21;;;;;;;3.70;3.40;;;19.50;97.20;;;;;;1734196;28;20199;-74
2022/09/02 07:50:12;;;;;;;5.68;3.25;;;19.50;97.20;;;;;;1734008;28;20283;-74
2022/09/02 07:51:05;;;;;;;4.97;3.30;;;19.50;97.20;;;;;;1734226;28;20310;-74
2022/09/02 07:51:57;;;;;;;8.05;3.22;;;19.60;97.20;;;;;;1733992;28;20650;-73
2022/09/02 07:52:49;;;;;;;3.20;2.90;;;19.60;97.20;;;;;;1734106;28;20211;-72
2022/09/02 07:53:42;;;;;;;4.90;3.65;;;19.60;97.20;;;;;;1733994;28;20195;-72
2022/09/02 07:54:33;;;;;;;6.07;3.50;;;19.70;97.20;;;;;;1734125;28;20215;-72
2022/09/02 07:55:26;;;;;;;3.50;3.20;;;19.70;97.20;;;;;;1734146;28;20246;-72
2022/09/02 07:56:17;;;;;;;5.28;3.60;;;19.70;97.20;;;;;;1734024;28;20578;-72
2022/09/02 07:57:09;;;;;;;3.00;2.78;;;19.70;97.20;;;;;;1734017;28;20245;-72
2022/09/02 07:58:00;;;;;;;3.78;2.85;;;19.70;97.20;;;;;;1734100;28;20223;-72
2022/09/02 07:58:51;;;;;;;3.67;3.37;;;19.80;97.20;;;;;;1734011;28;20290;-72
2022/09/02 07:59:42;;;;;;;3.50;3.20;;;19.80;97.20;;;;;;1734090;28;20203;-72
2022/09/02 08:00:34;;;;;;;4.77;2.70;;;19.80;97.20;;;;;;1733898;28;21149;-72
2022/09/02 08:01:25;;;;;;;7.07;3.10;;;19.80;97.20;;;;;;1733958;28;20925;-72
2022/09/02 08:02:17;;;;;;;4.20;3.50;;;19.90;97.20;;;;;;1733964;28;20719;-72
2022/09/02 08:03:10;;;;;;;3.50;3.20;;;19.90;97.20;;;;;;1734095;28;20446;-72
2022/09/02 08:04:02;;;;;;;4.15;2.85;;;19.90;97.20;;;;;;1734062;28;20192;-72
2022/09/02 08:04:53;;;;;;;4.75;3.35;;;20.00;97.20;;;;;;1734020;28;20684;-72
2022/09/02 08:05:46;;;;;;;4.78;3.08;;;20.00;97.20;;;;;;1734078;28;20227;-72
2022/09/02 08:06:38;;;;;;;2.90;2.70;;;20.00;97.20;;;;;;1733751;28;20208;-72
2022/09/02 08:07:30;;;;;;;4.53;3.47;;;20.10;97.20;;;;;;1734196;28;20226;-72
2022/09/02 08:08:21;;;;;;;9.77;3.50;;;20.10;97.20;;;;;;1735496;28;20200;-72
2022/09/02 08:09:13;;;;;;;4.67;3.20;;;20.10;97.20;;;;;;1735479;28;20195;-72
2022/09/02 08:10:09;;;;;;;3.85;2.90;;;20.20;97.20;;;;;;1735356;28;20454;-72
2022/09/02 08:11:01;;;;;;;4.88;2.55;;;20.20;97.20;;;;;;1735420;28;20303;-72
2022/09/02 08:11:52;;;;;;;5.47;2.95;;;20.20;97.20;;;;;;1735315;28;20226;-72
2022/09/02 08:12:45;;;;;;;3.70;2.72;;;20.20;97.20;;;;;;1735391;28;20202;-72
2022/09/02 08:13:36;;;;;;;3.60;3.30;;;20.30;97.20;;;;;;1735348;28;20318;-72
2022/09/02 08:14:28;;;;;;;4.72;3.20;;;20.30;97.20;;;;;;1735389;28;20200;-72
2022/09/02 08:15:19;;;;;;;3.53;3.13;;;20.30;97.20;;;;;;1735354;28;20199;-72
2022/09/02 08:16:11;;;;;;;3.23;3.03;;;20.40;97.20;;;;;;1735339;28;20257;-72
2022/09/02 08:17:02;;;;;;;3.38;2.95;;;20.40;97.20;;;;;;1735330;28;20195;-72
2022/09/02 08:17:55;;;;;;;3.58;3.03;;;20.40;97.20;;;;;;1735095;28;20569;-72
2022/09/02 08:18:47;;;;;;;3.08;2.88;;;20.50;97.20;;;;;;1735128;28;20248;-72
2022/09/02 08:19:39;;;;;;;3.20;2.83;;;20.50;97.20;;;;;;1735365;28;20654;-72
2022/09/02 08:20:29;;;;;;;4.75;2.75;;;20.50;97.20;;;;;;1735257;28;20689;-72
2022/09/02 08:21:21;;;;;;;3.63;3.33;;;20.60;97.20;;;;;;1735380;28;20726;-72
2022/09/02 08:22:14;;;;;;;3.30;3.00;;;20.60;97.20;;;;;;1735022;28;20210;-72
2022/09/02 08:23:07;;;;;;;3.33;3.10;;;20.60;97.20;;;;;;1735282;28;20200;-72
2022/09/02 08:23:59;;;;;;;3.20;2.95;;;20.70;97.20;;;;;;1735108;28;20196;-72
2022/09/02 08:24:51;;;;;;;3.67;2.97;;;20.70;97.20;;;;;;1735187;28;20196;-72
2022/09/02 08:25:42;;;;;;;4.82;3.67;;;20.70;97.20;;;;;;1735356;28;20211;-72
2022/09/02 08:26:35;;;;;;;4.50;3.27;;;20.70;97.20;;;;;;1735377;28;20204;-72
2022/09/02 08:27:27;;;;;;;6.13;3.17;;;20.80;97.20;;;;;;1735043;28;20685;-72
2022/09/02 08:28:18;;;;;;;3.50;3.20;;;20.80;97.20;;;;;;1735220;28;20223;-72
2022/09/02 08:29:10;;;;;;;4.17;3.50;;;20.80;97.20;;;;;;1735291;28;20287;-72
2022/09/02 08:30:00;;;;;;;3.75;3.42;;;20.80;97.20;;;;;;1735416;28;20207;-72
2022/09/02 08:30:53;;;;;;;4.00;2.80;;;20.90;97.20;;;;;;1735192;28;20223;-72
2022/09/02 08:31:44;;;;;;;4.22;3.15;;;20.90;97.20;;;;;;1735390;28;20566;-72
2022/09/02 08:32:36;;;;;;;3.63;2.90;;;20.90;97.20;;;;;;1735247;28;20399;-72
2022/09/02 08:33:27;;;;;;;3.40;3.10;;;21.00;97.20;;;;;;1735371;28;20207;-72
2022/09/02 08:34:19;;;;;;;5.10;3.50;;;21.00;97.20;;;;;;1735257;28;20563;-72
2022/09/02 08:35:10;;;;;;;4.25;2.97;;;21.00;97.20;;;;;;1735315;28;20196;-72
2022/09/02 08:36:04;;;;;;;4.03;2.83;;;21.00;97.20;;;;;;1735298;28;20658;-72
2022/09/02 08:36:56;;;;;;;3.00;2.70;;;21.10;97.20;;;;;;1735158;28;20211;-72
2022/09/02 08:37:49;;;;;;;3.35;2.38;;;21.10;97.20;;;;;;1734867;28;20203;-72
2022/09/02 08:38:40;;;;;;;3.90;2.95;;;21.10;97.20;;;;;;1734946;28;20208;-72
2022/09/02 08:39:32;;;;;;;3.88;2.78;;;21.10;97.20;;;;;;1735305;28;20235;-72
2022/09/02 08:40:28;;;;;;;5.35;2.70;;;21.10;97.20;;;;;;1735207;28;20199;-72
2022/09/02 08:41:23;;;;;;;4.25;2.67;;;21.20;97.20;;;;;;1735360;28;20681;-72
2022/09/02 08:42:20;;;;;;;3.10;2.90;;;21.20;97.20;;;;;;1735251;28;20204;-72
2022/09/02 08:43:28;;;;;;;2.90;2.58;;;21.20;97.20;;;;;;1735243;28;20275;-72
2022/09/02 08:44:21;;;;;;;2.60;2.40;;;21.30;97.20;;;;;;1735213;28;20208;-72
2022/09/02 08:45:20;;;;;;;3.35;2.38;;;21.30;97.20;;;;;;1735025;28;20196;-72
2022/09/02 08:46:16;;;;;;;5.28;2.20;;;21.30;97.20;;;;;;1735270;28;20663;-72
2022/09/02 08:47:15;;;;;;;3.00;2.67;;;21.40;97.20;;;;;;1735236;28;20195;-72
2022/09/02 08:48:11;;;;;;;2.67;2.47;;;21.40;97.20;;;;;;1735161;28;20601;-72
2022/09/02 08:49:08;;;;;;;2.45;2.25;;;21.50;97.20;;;;;;1735079;28;20247;-72
2022/09/02 08:50:02;;;;;;;5.10;2.35;;;21.50;97.20;;;;;;1735182;28;20608;-72
2022/09/02 08:51:00;;;;;;;3.72;2.40;;;21.50;97.20;;;;;;1735048;28;20223;-72
2022/09/02 08:51:55;;;;;;;5.22;2.60;;;21.50;97.20;;;;;;1735119;28;20204;-72
2022/09/02 08:52:56;;;;;;;8.48;2.95;;;21.50;97.20;;;;;;1735239;28;20609;-72
2022/09/02 08:53:51;;;;;;;4.32;2.88;;;21.50;97.20;;;;;;1735141;28;20204;-73
2022/09/02 08:54:48;;;;;;;2.80;2.45;;;21.50;97.20;;;;;;1735135;28;20199;-72
2022/09/02 08:55:44;;;;;;;6.22;3.10;;;21.50;97.20;;;;;;1735150;28;20206;-72
2022/09/02 08:56:36;;;;;;;4.55;2.80;;;21.60;97.20;;;;;;1735061;28;20204;-72
2022/09/02 08:57:27;;;;;;;2.63;2.42;;;21.60;97.20;;;;;;1734925;28;20567;-72
2022/09/02 08:58:22;;;;;;;2.67;2.25;;;21.60;97.20;;;;;;1734771;28;20192;-72
2022/09/02 08:59:13;;;;;;;5.25;2.83;;;21.70;97.20;;;;;;1734986;28;20666;-72
2022/09/02 09:00:06;;;;;;;4.13;2.58;;;21.70;97.20;;;;;;1735061;28;20192;-72
2022/09/02 09:01:06;;;;;;;2.97;2.40;;;21.70;97.20;;;;;;1734826;28;20238;-72
2022/09/02 09:02:05;;;;;;;2.55;2.35;;;21.80;97.20;;;;;;1735065;28;20204;-72
2022/09/02 09:03:03;;;;;;;4.10;2.72;;;21.90;97.20;;;;;;1735110;28;20565;-72
2022/09/02 09:04:18;;;;;;;2.88;2.35;;;21.90;97.20;;;;;;1735102;28;20207;-72
2022/09/02 09:05:20;;;;;;;3.70;2.25;;;22.00;97.20;;;;;;1735114;28;20235;-73
2022/09/02 09:06:19;;;;;;;2.63;2.40;;;22.00;97.20;;;;;;1735131;28;20203;-72
2022/09/02 09:07:20;;;;;;;3.05;2.40;;;22.10;97.20;;;;;;1734746;28;20203;-72
2022/09/02 09:08:20;;;;;;;2.25;2.05;;;22.10;97.20;;;;;;1734995;28;20224;-72
2022/09/02 09:09:20;;;;;;;4.60;2.50;;;22.20;97.20;;;;;;1735028;28;20204;-72
2022/09/02 09:10:20;;;;;;;4.47;2.92;;;22.20;97.20;;;;;;1735039;28;20266;-72
2022/09/02 09:11:19;;;;;;;2.75;2.22;;;22.30;97.20;;;;;;1735085;28;20291;-72
2022/09/02 09:12:16;;;;;;;2.75;2.55;;;22.30;97.20;;;;;;1735090;28;20211;-72
2022/09/02 09:13:21;;;;;;;4.45;2.75;;;22.40;97.20;;;;;;1735060;28;20646;-72
2022/09/02 09:14:26;;;;;;;4.55;2.78;;;22.40;97.20;;;;;;1734932;28;20211;-72
2022/09/02 09:15:30;;;;;;;2.85;2.58;;;22.50;97.20;;;;;;1734993;28;20208;-72
2022/09/02 09:16:33;;;;;;;2.63;2.42;;;22.50;97.20;;;;;;1735020;28;20229;-72
2022/09/02 09:17:30;;;;;;;2.10;1.90;;;22.50;97.20;;;;;;1734658;28;20697;-73
2022/09/02 09:18:29;;;;;;;2.70;2.00;;;22.50;97.20;;;;;;1734960;28;20203;-72
2022/09/02 09:19:28;;;;;;;3.03;2.10;;;22.50;97.20;;;;;;1734547;28;20250;-72
2022/09/02 09:20:23;;;;;;;3.25;2.30;;;22.50;97.20;;;;;;1734916;28;20655;-72
2022/09/02 09:21:15;;;;;;;2.95;2.30;;;22.60;97.20;;;;;;1735037;28;20306;-72
2022/09/02 09:22:05;;;;;;;2.45;2.25;;;22.60;97.20;;;;;;1734881;28;20211;-72
2022/09/02 09:22:59;;;;;;;4.10;2.00;;;22.60;97.20;;;;;;1734953;28;20200;-72
2022/09/02 09:23:54;;;;;;;2.00;1.90;;;22.70;97.20;;;;;;1734819;28;20474;-72
2022/09/02 09:24:48;;;;;;;2.33;2.10;;;22.70;97.20;;;;;;1734993;28;20200;-72
2022/09/02 09:25:39;;;;;;;5.80;2.30;;;22.70;97.20;;;;;;1734964;28;20211;-72
2022/09/02 09:26:37;;;;;;;3.20;2.72;;;22.80;97.20;;;;;;1734966;28;20722;-72
2022/09/02 09:27:28;;;;;;;3.42;2.47;;;22.80;97.20;;;;;;1734708;28;20454;-72
2022/09/02 09:28:20;;;;;;;2.10;1.90;;;22.80;97.20;;;;;;1734848;28;20310;-72
2022/09/02 09:29:11;;;;;;;2.95;2.40;;;22.90;97.20;;;;;;1734846;28;20207;-72
2022/09/02 09:30:05;;;;;;;3.25;2.10;;;22.90;97.20;;;;;;1734988;28;20195;-72
2022/09/02 09:30:59;;;;;;;2.20;2.00;;;22.90;97.20;;;;;;1734880;28;20702;-72
2022/09/02 09:31:58;;;;;;;2.35;2.15;;;22.80;97.20;;;;;;1734943;28;20200;-72
2022/09/02 09:32:54;;;;;;;2.95;2.10;;;22.90;97.20;;;;;;1734912;28;20203;-72
2022/09/02 09:33:55;;;;;;;3.30;2.10;;;22.90;97.20;;;;;;1734882;28;20207;-72
2022/09/02 09:35:00;;;;;;;1.88;1.77;;;22.90;97.20;;;;;;1734983;28;20681;-72
2022/09/02 09:35:55;;;;;;;2.20;2.00;;;22.90;97.20;;;;;;1734919;28;20211;-72
2022/09/02 09:36:50;;;;;;;2.28;2.08;;;23.00;97.20;;;;;;1734860;28;20200;-72
2022/09/02 09:37:44;;;;;;;2.08;1.88;;;23.00;97.20;;;;;;1734554;28;20207;-72
2022/09/02 09:38:37;;;;;;;2.70;2.00;;;23.10;97.20;;;;;;1734787;28;20257;-72
2022/09/02 09:39:32;;;;;;;2.55;1.92;;;23.10;97.20;;;;;;1734570;28;20250;-72